Altama, Georgia
Current Conditions -  °F | °C
As of 12:55 PM on Saturday 20 Dec 2014 (Local Time) from KBQK Reporting Station
Overcast Overcast  
Wind Chill: 61°   Ceiling: 10000
Heat Index: 61°   Visibility: 10mi
Dew Point: 54°   Wind: 6mph
Humidity: 77%   Direction: 360°N
Pressure: 30.14"   Gusts: NA
Location:  31.1773°N, 81.4991°W
Report Text: KBQK 201755Z AUTO 36005KT 10SM OVC100 16/12 A3014 RMK AO1
Loading
Personal Weather Stations






























Interactive Weather Map New forecast layout! Learn more

10-Day Weather Forecast

Advertisements
Track Severe Weather on mobile